Time;durP1;ratioP1;P1;durP2;ratioP2;P2;SDS_P1;SDS_P2;PMS_P1;PMS_P2;Temp;Humidity;BMP_temperature;BMP_pressure;BME280_temperature;BME280_humidity;BME280_pressure;Samples;Min_cycle;Max_cycle;Signal;HPM_P1;HPM_P2
2022/12/19 00:00:34;;;;;;;;;;;;;;;;;;5059413;28;19931;-53
2022/12/19 00:03:02;;;;;;;;;;;;;;;;;;5063701;28;19929;-51
2022/12/19 00:05:29;;;;;;;;;;;;;;;;;;5074325;28;20412;-51
2022/12/19 00:07:56;;;;;;;;;;;;;;;;;;5063733;28;19924;-50
2022/12/19 00:10:22;;;;;;;;;;;;;;;;;;5054122;28;19925;-51
2022/12/19 00:12:49;;;;;;;;;;;;;;;;;;5054493;28;20349;-53
2022/12/19 00:15:15;;;;;;;;;;;;;;;;;;5054279;28;19925;-52
2022/12/19 00:17:42;;;;;;;;;;;;;;;;;;5068102;28;19932;-48
2022/12/19 00:20:11;;;;;;;;;;;;;;;;;;5053794;28;19998;-50
2022/12/19 00:22:37;;;;;;;;;;;;;;;;;;5053885;28;19924;-50
2022/12/19 00:25:04;;;;;;;;;;;;;;;;;;5053908;28;19972;-50
2022/12/19 00:27:33;;;;;;;;;;;;;;;;;;5054051;28;19925;-49
2022/12/19 00:30:00;;;;;;;;;;;;;;;;;;5053421;28;19971;-50
2022/12/19 00:32:26;;;;;;;;;;;;;;;;;;5053752;28;19925;-50
2022/12/19 00:34:53;;;;;;;;;;;;;;;;;;5053735;28;19974;-49
2022/12/19 00:37:21;;;;;;;;;;;;;;;;;;5053609;28;20012;-51
2022/12/19 00:39:47;;;;;;;;;;;;;;;;;;5069738;28;19925;-49
2022/12/19 00:42:14;;;;;;;;;;;;;;;;;;5073631;28;19931;-50
2022/12/19 00:44:40;;;;;;;;;;;;;;;;;;5090016;22;20402;-76
2022/12/19 00:47:07;;;;;;;;;;;;;;;;;;5071818;28;19924;-76
2022/12/19 00:49:33;;;;;;;;;;;;;;;;;;5072822;28;20015;-76
2022/12/19 00:52:00;;;;;;;;;;;;;;;;;;5072925;28;20255;-76
2022/12/19 00:54:28;;;;;;;;;;;;;;;;;;5072786;28;19929;-76
2022/12/19 00:56:54;;;;;;;;;;;;;;;;;;5073163;28;20019;-76
2022/12/19 00:59:21;;;;;;;;;;;;;;;;;;5072766;28;19935;-76
2022/12/19 01:01:47;;;;;;;;;;;;;;;;;;5073522;28;19970;-76
2022/12/19 01:04:14;;;;;;;;;;;;;;;;;;5073119;28;20573;-76
2022/12/19 01:06:41;;;;;;;;;;;;;;;;;;5073674;28;19931;-76
2022/12/19 01:09:07;;;;;;;;;;;;;;;;;;5073891;28;19924;-76
2022/12/19 01:14:19;;;;;;;;;;;;;;;;;;5074312;28;19993;-76
2022/12/19 01:16:45;;;;;;;;;;;;;;;;;;5074243;28;19971;-76
2022/12/19 01:19:12;;;;;;;;;;;;;;;;;;5073725;28;19959;-76
2022/12/19 01:21:38;;;;;;;;;;;;;;;;;;5073060;28;19930;-75
2022/12/19 01:24:05;;;;;;;;;;;;;;;;;;5072658;28;20290;-75
2022/12/19 01:26:32;;;;;;;;;;;;;;;;;;5072467;28;19931;-77
2022/12/19 01:28:59;;;;;;;;;;;;;;;;;;5072671;28;19931;-77
2022/12/19 01:31:26;;;;;;;;;;;;;;;;;;5071756;28;20378;-76
2022/12/19 01:33:52;;;;;;;;;;;;;;;;;;5072427;28;19925;-77
2022/12/19 01:36:19;;;;;;;;;;;;;;;;;;5072192;28;19944;-75
2022/12/19 01:38:45;;;;;;;;;;;;;;;;;;5072640;28;19950;-76
2022/12/19 01:41:12;;;;;;;;;;;;;;;;;;5072264;28;19928;-77
2022/12/19 01:43:54;;;;;;;;;;;;;;;;;;5072237;28;19935;-77
2022/12/19 01:46:24;;;;;;;;;;;;;;;;;;5072096;28;19954;-76
2022/12/19 01:48:51;;;;;;;;;;;;;;;;;;5072201;28;20451;-76
2022/12/19 01:51:19;;;;;;;;;;;;;;;;;;5070883;28;20394;-76
2022/12/19 01:53:47;;;;;;;;;;;;;;;;;;5072324;28;20019;-75
2022/12/19 01:56:14;;;;;;;;;;;;;;;;;;5071752;28;20530;-76
2022/12/19 01:58:45;;;;;;;;;;;;;;;;;;5072337;28;19925;-76
2022/12/19 02:01:11;;;;;;;;;;;;;;;;;;5072077;28;19959;-76
2022/12/19 02:03:40;;;;;;;;;;;;;;;;;;5072167;28;20401;-76
2022/12/19 02:06:08;;;;;;;;;;;;;;;;;;5071887;28;20011;-75
2022/12/19 02:08:35;;;;;;;;;;;;;;;;;;5071940;28;19931;-76
2022/12/19 02:11:01;;;;;;;;;;;;;;;;;;5072014;28;19974;-76
2022/12/19 02:13:28;;;;;;;;;;;;;;;;;;5071727;28;19925;-76
2022/12/19 02:15:59;;;;;;;;;;;;;;;;;;5071476;28;19983;-76
2022/12/19 02:18:29;;;;;;;;;;;;;;;;;;5071400;28;19924;-75
2022/12/19 02:21:04;;;;;;;;;;;;;;;;;;5071711;28;19931;-76
2022/12/19 02:23:48;;;;;;;;;;;;;;;;;;5071791;28;19931;-76
2022/12/19 02:26:27;;;;;;;;;;;;;;;;;;5021574;28;19932;-76
2022/12/19 02:29:09;;;;;;;;;;;;;;;;;;5071835;28;20387;-76
2022/12/19 02:31:41;;;;;;;;;;;;;;;;;;5070847;28;19946;-76
2022/12/19 02:34:12;;;;;;;;;;;;;;;;;;5071444;28;20035;-76
2022/12/19 02:36:40;;;;;;;;;;;;;;;;;;5071988;28;19925;-76
2022/12/19 02:39:09;;;;;;;;;;;;;;;;;;5071297;28;20383;-76
2022/12/19 02:41:43;;;;;;;;;;;;;;;;;;5071591;28;19925;-75
2022/12/19 02:44:11;;;;;;;;;;;;;;;;;;5071484;28;19924;-76
2022/12/19 02:46:39;;;;;;;;;;;;;;;;;;5071740;28;19934;-76
2022/12/19 02:49:06;;;;;;;;;;;;;;;;;;5071551;28;19952;-76
2022/12/19 02:51:32;;;;;;;;;;;;;;;;;;5071134;28;19924;-76
2022/12/19 02:53:59;;;;;;;;;;;;;;;;;;5071757;28;19972;-76
2022/12/19 02:56:41;;;;;;;;;;;;;;;;;;5071707;28;19931;-76
2022/12/19 02:59:22;;;;;;;;;;;;;;;;;;5071296;28;19928;-75
2022/12/19 03:01:53;;;;;;;;;;;;;;;;;;5066881;28;20337;-75
2022/12/19 03:04:24;;;;;;;;;;;;;;;;;;5071684;28;20015;-76
2022/12/19 03:06:53;;;;;;;;;;;;;;;;;;5070727;28;19931;-76
2022/12/19 03:09:24;;;;;;;;;;;;;;;;;;5071147;28;19930;-76
2022/12/19 03:11:56;;;;;;;;;;;;;;;;;;5071050;28;20378;-76
2022/12/19 03:14:23;;;;;;;;;;;;;;;;;;5071218;28;20395;-76
2022/12/19 03:16:52;;;;;;;;;;;;;;;;;;5071052;28;19924;-76
2022/12/19 03:19:18;;;;;;;;;;;;;;;;;;5071224;28;19930;-76
2022/12/19 03:21:49;;;;;;;;;;;;;;;;;;5071321;28;19970;-76
2022/12/19 03:24:16;;;;;;;;;;;;;;;;;;5070998;28;20388;-76
2022/12/19 03:26:47;;;;;;;;;;;;;;;;;;5064445;28;19950;-76
2022/12/19 03:29:15;;;;;;;;;;;;;;;;;;5072258;28;19924;-75
2022/12/19 03:31:42;;;;;;;;;;;;;;;;;;5074896;28;19924;-76
2022/12/19 03:34:11;;;;;;;;;;;;;;;;;;5074732;28;20306;-76
2022/12/19 03:36:40;;;;;;;;;;;;;;;;;;5074925;28;20394;-76
2022/12/19 03:39:09;;;;;;;;;;;;;;;;;;5074522;28;19955;-75
2022/12/19 03:44:20;;;;;;;;;;;;;;;;;;5074348;28;19931;-76
2022/12/19 03:46:50;;;;;;;;;;;;;;;;;;5075269;28;20019;-76
2022/12/19 03:49:18;;;;;;;;;;;;;;;;;;5074274;28;19932;-76
2022/12/19 03:51:47;;;;;;;;;;;;;;;;;;5074103;28;19931;-75
2022/12/19 03:54:15;;;;;;;;;;;;;;;;;;5073961;28;20486;-76
2022/12/19 03:56:46;;;;;;;;;;;;;;;;;;5074006;28;19960;-76
2022/12/19 03:59:17;;;;;;;;;;;;;;;;;;5074647;28;19930;-76
2022/12/19 04:01:44;;;;;;;;;;;;;;;;;;5074021;28;20011;-76
2022/12/19 04:04:11;;;;;;;;;;;;;;;;;;5073923;28;19956;-76
2022/12/19 04:06:40;;;;;;;;;;;;;;;;;;5060224;28;19929;-75
2022/12/19 04:09:07;;;;;;;;;;;;;;;;;;5074152;28;20023;-75
2022/12/19 04:11:36;;;;;;;;;;;;;;;;;;5073500;28;19931;-75
2022/12/19 04:14:05;;;;;;;;;;;;;;;;;;5074123;28;20407;-76
2022/12/19 04:16:35;;;;;;;;;;;;;;;;;;5073612;28;19929;-75
2022/12/19 04:19:04;;;;;;;;;;;;;;;;;;5074150;28;19929;-75
2022/12/19 04:21:32;;;;;;;;;;;;;;;;;;5073753;28;19931;-75
2022/12/19 04:24:02;;;;;;;;;;;;;;;;;;5073955;28;19928;-75
2022/12/19 04:26:30;;;;;;;;;;;;;;;;;;5074318;28;19934;-75
2022/12/19 04:28:59;;;;;;;;;;;;;;;;;;5073237;28;19931;-75
2022/12/19 04:31:26;;;;;;;;;;;;;;;;;;5073462;28;19925;-76
2022/12/19 04:33:52;;;;;;;;;;;;;;;;;;5074127;28;19924;-76
2022/12/19 04:36:19;;;;;;;;;;;;;;;;;;5073890;28;20011;-76
2022/12/19 04:38:45;;;;;;;;;;;;;;;;;;5073940;28;19977;-76
2022/12/19 04:41:13;;;;;;;;;;;;;;;;;;5072623;28;19924;-76
2022/12/19 04:43:40;;;;;;;;;;;;;;;;;;5072809;28;19977;-76
2022/12/19 04:46:06;;;;;;;;;;;;;;;;;;5072965;28;20011;-76
2022/12/19 04:48:34;;;;;;;;;;;;;;;;;;5073431;28;19970;-76
2022/12/19 04:51:01;;;;;;;;;;;;;;;;;;5073221;28;19936;-76
2022/12/19 04:53:27;;;;;;;;;;;;;;;;;;5072921;28;19925;-76
2022/12/19 04:56:00;;;;;;;;;;;;;;;;;;5065329;28;19968;-76
2022/12/19 04:58:27;;;;;;;;;;;;;;;;;;5073165;28;20470;-76
2022/12/19 05:00:59;;;;;;;;;;;;;;;;;;5072421;28;20165;-76
2022/12/19 05:03:26;;;;;;;;;;;;;;;;;;5073379;28;19931;-76
2022/12/19 05:05:52;;;;;;;;;;;;;;;;;;5072705;28;20497;-76
2022/12/19 05:08:19;;;;;;;;;;;;;;;;;;5073189;28;20466;-76
2022/12/19 05:10:45;;;;;;;;;;;;;;;;;;5073933;28;19980;-76
2022/12/19 05:13:11;;;;;;;;;;;;;;;;;;5074897;28;19972;-76
2022/12/19 05:15:39;;;;;;;;;;;;;;;;;;5074505;28;19931;-76
2022/12/19 05:18:06;;;;;;;;;;;;;;;;;;5074636;28;20083;-76
2022/12/19 05:20:32;;;;;;;;;;;;;;;;;;5074021;28;20015;-76
2022/12/19 05:22:58;;;;;;;;;;;;;;;;;;5073902;28;20016;-77
2022/12/19 05:25:25;;;;;;;;;;;;;;;;;;5074057;28;20026;-76
2022/12/19 05:27:51;;;;;;;;;;;;;;;;;;5074443;28;19971;-76
2022/12/19 05:30:18;;;;;;;;;;;;;;;;;;5074254;28;20386;-76
2022/12/19 05:32:46;;;;;;;;;;;;;;;;;;5073866;28;19975;-76
2022/12/19 05:35:12;;;;;;;;;;;;;;;;;;5072813;28;20301;-76
2022/12/19 05:37:38;;;;;;;;;;;;;;;;;;5072294;28;19931;-76
2022/12/19 05:40:05;;;;;;;;;;;;;;;;;;5072123;28;20020;-76
2022/12/19 05:42:32;;;;;;;;;;;;;;;;;;5072375;28;19925;-76
2022/12/19 05:44:58;;;;;;;;;;;;;;;;;;5072275;28;19925;-76
2022/12/19 05:47:25;;;;;;;;;;;;;;;;;;5072208;28;19924;-76
2022/12/19 05:49:52;;;;;;;;;;;;;;;;;;5071976;28;20474;-76
2022/12/19 05:52:19;;;;;;;;;;;;;;;;;;5071507;28;20130;-76
2022/12/19 05:54:45;;;;;;;;;;;;;;;;;;5071808;28;20019;-76
2022/12/19 05:57:12;;;;;;;;;;;;;;;;;;5072563;28;19986;-76
2022/12/19 05:59:38;;;;;;;;;;;;;;;;;;5071916;28;19930;-77
2022/12/19 06:02:05;;;;;;;;;;;;;;;;;;5071454;28;19925;-76
2022/12/19 06:04:31;;;;;;;;;;;;;;;;;;5063593;28;19998;-76
2022/12/19 06:06:59;;;;;;;;;;;;;;;;;;5071033;28;19936;-76
2022/12/19 06:09:25;;;;;;;;;;;;;;;;;;5071876;28;19925;-77
2022/12/19 06:11:52;;;;;;;;;;;;;;;;;;5072066;28;19924;-76
2022/12/19 06:14:19;;;;;;;;;;;;;;;;;;5072192;28;19924;-76
2022/12/19 06:16:45;;;;;;;;;;;;;;;;;;5072058;28;19925;-76
2022/12/19 06:19:12;;;;;;;;;;;;;;;;;;5072481;28;19925;-76
2022/12/19 06:21:38;;;;;;;;;;;;;;;;;;5071281;28;19925;-76
2022/12/19 06:24:06;;;;;;;;;;;;;;;;;;5072271;28;19973;-76
2022/12/19 06:26:33;;;;;;;;;;;;;;;;;;5071850;28;19925;-76
2022/12/19 06:28:59;;;;;;;;;;;;;;;;;;5071734;28;19931;-76
2022/12/19 06:31:25;;;;;;;;;;;;;;;;;;5070858;28;19925;-76
2022/12/19 06:33:52;;;;;;;;;;;;;;;;;;5071296;28;20401;-76
2022/12/19 06:36:20;;;;;;;;;;;;;;;;;;5071713;28;19931;-76
2022/12/19 06:38:47;;;;;;;;;;;;;;;;;;5071563;28;20022;-76
2022/12/19 06:43:59;;;;;;;;;;;;;;;;;;5071259;28;20018;-76
2022/12/19 06:46:26;;;;;;;;;;;;;;;;;;5082313;22;19924;-76
2022/12/19 06:48:52;;;;;;;;;;;;;;;;;;5071755;28;20607;-76
2022/12/19 06:51:19;;;;;;;;;;;;;;;;;;5071713;28;20011;-75
2022/12/19 06:53:45;;;;;;;;;;;;;;;;;;5071683;28;20070;-75
2022/12/19 06:56:13;;;;;;;;;;;;;;;;;;5071667;28;20019;-76
2022/12/19 06:58:40;;;;;;;;;;;;;;;;;;5071829;28;19925;-76
2022/12/19 07:01:07;;;;;;;;;;;;;;;;;;5059503;28;19924;-75
2022/12/19 07:03:35;;;;;;;;;;;;;;;;;;5070517;28;19925;-76
2022/12/19 07:06:02;;;;;;;;;;;;;;;;;;5055593;28;19929;-76
2022/12/19 07:08:28;;;;;;;;;;;;;;;;;;5055517;28;20000;-76
2022/12/19 07:10:55;;;;;;;;;;;;;;;;;;5056074;28;20027;-76
2022/12/19 07:13:21;;;;;;;;;;;;;;;;;;5063886;28;20369;-76
2022/12/19 07:15:49;;;;;;;;;;;;;;;;;;5055320;28;20019;-76
2022/12/19 07:18:16;;;;;;;;;;;;;;;;;;5055354;28;20011;-75
2022/12/19 07:20:42;;;;;;;;;;;;;;;;;;5063395;28;19925;-75
2022/12/19 07:23:10;;;;;;;;;;;;;;;;;;5063776;28;20011;-75
2022/12/19 07:25:37;;;;;;;;;;;;;;;;;;5071266;28;20307;-76
2022/12/19 07:28:03;;;;;;;;;;;;;;;;;;5073965;28;20019;-75
2022/12/19 07:30:30;;;;;;;;;;;;;;;;;;5074879;28;20015;-75
2022/12/19 07:32:57;;;;;;;;;;;;;;;;;;5068792;28;20011;-75
2022/12/19 07:35:24;;;;;;;;;;;;;;;;;;5071596;28;19924;-75
2022/12/19 07:37:51;;;;;;;;;;;;;;;;;;5068177;28;19960;-75
2022/12/19 07:40:17;;;;;;;;;;;;;;;;;;5074714;28;20004;-75
2022/12/19 07:42:44;;;;;;;;;;;;;;;;;;5071449;28;19934;-75
2022/12/19 07:45:11;;;;;;;;;;;;;;;;;;5054709;28;19940;-75
2022/12/19 07:47:37;;;;;;;;;;;;;;;;;;5066914;28;19924;-75
2022/12/19 07:50:05;;;;;;;;;;;;;;;;;;5075030;28;19975;-75
2022/12/19 07:52:32;;;;;;;;;;;;;;;;;;5073947;28;20342;-75
2022/12/19 07:54:58;;;;;;;;;;;;;;;;;;5074474;28;20019;-75
2022/12/19 07:57:25;;;;;;;;;;;;;;;;;;5073685;28;19924;-74
2022/12/19 07:59:51;;;;;;;;;;;;;;;;;;5055294;28;20015;-75
2022/12/19 08:02:18;;;;;;;;;;;;;;;;;;5054636;28;19924;-76
2022/12/19 08:04:44;;;;;;;;;;;;;;;;;;5061293;28;19925;-75
2022/12/19 08:07:12;;;;;;;;;;;;;;;;;;5059869;28;19924;-75
2022/12/19 08:09:38;;;;;;;;;;;;;;;;;;5063926;28;20335;-75
2022/12/19 08:12:05;;;;;;;;;;;;;;;;;;5070436;28;20019;-76
2022/12/19 08:14:31;;;;;;;;;;;;;;;;;;5074086;28;20023;-75
2022/12/19 08:16:58;;;;;;;;;;;;;;;;;;5071116;28;19929;-75
2022/12/19 08:19:24;;;;;;;;;;;;;;;;;;5054477;28;20324;-75
2022/12/19 08:21:51;;;;;;;;;;;;;;;;;;5053956;28;20011;-75
2022/12/19 08:24:19;;;;;;;;;;;;;;;;;;5052332;28;19924;-76
2022/12/19 08:26:45;;;;;;;;;;;;;;;;;;5052001;28;20027;-75
2022/12/19 08:29:12;;;;;;;;;;;;;;;;;;5055723;28;20530;-75
2022/12/19 08:31:39;;;;;;;;;;;;;;;;;;5052546;28;19943;-75
2022/12/19 08:34:06;;;;;;;;;;;;;;;;;;5063651;28;19946;-75
2022/12/19 08:36:32;;;;;;;;;;;;;;;;;;5052945;28;19925;-75
2022/12/19 08:38:59;;;;;;;;;;;;;;;;;;5058365;28;19924;-75
2022/12/19 08:41:26;;;;;;;;;;;;;;;;;;5071485;28;19963;-75
2022/12/19 08:43:54;;;;;;;;;;;;;;;;;;5073864;28;20015;-75
2022/12/19 08:46:21;;;;;;;;;;;;;;;;;;5082085;28;19928;-75
2022/12/19 08:48:47;;;;;;;;;;;;;;;;;;5083575;28;19929;-76
2022/12/19 08:51:14;;;;;;;;;;;;;;;;;;5065393;28;20037;-75
2022/12/19 08:53:42;;;;;;;;;;;;;;;;;;5051703;28;19947;-76
2022/12/19 08:56:10;;;;;;;;;;;;;;;;;;5052216;28;19964;-75
2022/12/19 08:58:38;;;;;;;;;;;;;;;;;;5051826;28;19936;-76
2022/12/19 09:01:07;;;;;;;;;;;;;;;;;;5051882;28;20003;-76
2022/12/19 09:03:34;;;;;;;;;;;;;;;;;;5052221;28;19924;-75
2022/12/19 09:06:02;;;;;;;;;;;;;;;;;;5071065;28;20020;-74
2022/12/19 09:08:29;;;;;;;;;;;;;;;;;;5071264;28;20023;-74
2022/12/19 09:10:58;;;;;;;;;;;;;;;;;;5071648;28;19924;-75
2022/12/19 09:13:25;;;;;;;;;;;;;;;;;;5071403;28;19970;-74
2022/12/19 09:16:00;;;;;;;;;;;;;;;;;;5071144;28;19924;-75
2022/12/19 09:18:27;;;;;;;;;;;;;;;;;;5071131;28;19932;-75
2022/12/19 09:20:53;;;;;;;;;;;;;;;;;;5070813;28;19987;-74
2022/12/19 09:23:20;;;;;;;;;;;;;;;;;;5071102;28;19924;-75
2022/12/19 09:25:46;;;;;;;;;;;;;;;;;;5063703;28;19964;-73
2022/12/19 09:28:13;;;;;;;;;;;;;;;;;;5071187;28;19932;-75
2022/12/19 09:30:39;;;;;;;;;;;;;;;;;;5071094;28;19972;-74
2022/12/19 09:33:07;;;;;;;;;;;;;;;;;;5069687;28;20010;-74
2022/12/19 09:35:33;;;;;;;;;;;;;;;;;;5070590;28;19925;-75
2022/12/19 09:38:00;;;;;;;;;;;;;;;;;;5072104;28;20011;-75
2022/12/19 09:40:28;;;;;;;;;;;;;;;;;;5072041;28;19936;-75
2022/12/19 09:43:02;;;;;;;;;;;;;;;;;;5071734;28;20417;-75
2022/12/19 09:45:34;;;;;;;;;;;;;;;;;;5052218;28;19982;-75
2022/12/19 09:48:01;;;;;;;;;;;;;;;;;;5052521;28;19951;-74
2022/12/19 09:50:43;;;;;;;;;;;;;;;;;;5052907;28;19925;-75
2022/12/19 09:53:13;;;;;;;;;;;;;;;;;;5053731;28;19932;-75
2022/12/19 09:55:41;;;;;;;;;;;;;;;;;;5057064;28;19983;-75
2022/12/19 09:58:11;;;;;;;;;;;;;;;;;;5057123;28;19951;-76
2022/12/19 10:00:40;;;;;;;;;;;;;;;;;;5056674;28;19925;-76
2022/12/19 10:03:14;;;;;;;;;;;;;;;;;;5053615;28;19932;-75
2022/12/19 10:05:43;;;;;;;;;;;;;;;;;;5051137;28;19924;-75
2022/12/19 10:08:15;;;;;;;;;;;;;;;;;;5051840;28;19924;-75
2022/12/19 10:10:46;;;;;;;;;;;;;;;;;;5052107;28;20015;-75
2022/12/19 10:13:17;;;;;;;;;;;;;;;;;;5050968;28;19925;-75
2022/12/19 10:15:48;;;;;;;;;;;;;;;;;;5051079;28;20280;-76
2022/12/19 10:18:24;;;;;;;;;;;;;;;;;;5052769;28;19925;-76
2022/12/19 10:20:53;;;;;;;;;;;;;;;;;;5052199;28;20018;-78
2022/12/19 10:23:34;;;;;;;;;;;;;;;;;;5051600;28;20002;-77
2022/12/19 10:26:03;;;;;;;;;;;;;;;;;;5053195;28;19988;-80
2022/12/19 10:28:34;;;;;;;;;;;;;;;;;;5058311;28;20422;-80
2022/12/19 10:31:05;;;;;;;;;;;;;;;;;;5059590;28;19929;-76
2022/12/19 10:33:35;;;;;;;;;;;;;;;;;;5059939;28;20379;-75
2022/12/19 10:36:08;;;;;;;;;;;;;;;;;;5050662;28;19928;-76
2022/12/19 10:38:36;;;;;;;;;;;;;;;;;;5051130;28;20018;-75
2022/12/19 10:41:10;;;;;;;;;;;;;;;;;;5055229;28;20027;-76
2022/12/19 10:43:41;;;;;;;;;;;;;;;;;;5055692;28;19925;-76
2022/12/19 10:46:11;;;;;;;;;;;;;;;;;;5072846;28;20073;-76
2022/12/19 10:48:38;;;;;;;;;;;;;;;;;;5055659;28;19924;-76
2022/12/19 10:51:10;;;;;;;;;;;;;;;;;;5058536;28;19925;-76
2022/12/19 10:53:36;;;;;;;;;;;;;;;;;;5057993;28;19931;-76
2022/12/19 10:56:11;;;;;;;;;;;;;;;;;;5063739;28;19928;-75
2022/12/19 10:58:38;;;;;;;;;;;;;;;;;;5055505;28;20027;-74
2022/12/19 11:01:05;;;;;;;;;;;;;;;;;;5055522;28;20011;-74
2022/12/19 11:03:32;;;;;;;;;;;;;;;;;;5067845;28;19975;-74
2022/12/19 11:06:01;;;;;;;;;;;;;;;;;;5056275;28;20303;-74
2022/12/19 11:08:30;;;;;;;;;;;;;;;;;;5058591;28;19944;-74
2022/12/19 11:10:57;;;;;;;;;;;;;;;;;;5071569;28;19924;-73
2022/12/19 11:13:25;;;;;;;;;;;;;;;;;;5061674;28;19925;-74
2022/12/19 11:15:53;;;;;;;;;;;;;;;;;;5076918;28;19925;-76
2022/12/19 11:18:19;;;;;;;;;;;;;;;;;;5090006;28;19919;-75
2022/12/19 11:20:54;;;;;;;;;;;;;;;;;;5075861;28;19956;-76
2022/12/19 11:23:20;;;;;;;;;;;;;;;;;;5072209;28;19925;-76
2022/12/19 11:25:55;;;;;;;;;;;;;;;;;;5070630;28;20001;-76
2022/12/19 11:28:23;;;;;;;;;;;;;;;;;;5094499;28;19924;-76
2022/12/19 11:30:55;;;;;;;;;;;;;;;;;;5085136;28;19925;-77
2022/12/19 11:33:21;;;;;;;;;;;;;;;;;;5078067;28;19935;-76
2022/12/19 11:35:49;;;;;;;;;;;;;;;;;;5077929;28;19913;-75
2022/12/19 11:38:18;;;;;;;;;;;;;;;;;;5077045;28;19925;-78
2022/12/19 11:40:46;;;;;;;;;;;;;;;;;;5077908;28;20010;-79
2022/12/19 11:43:18;;;;;;;;;;;;;;;;;;5076387;28;19925;-77
2022/12/19 11:45:49;;;;;;;;;;;;;;;;;;5077406;28;19919;-79
2022/12/19 11:48:17;;;;;;;;;;;;;;;;;;5085907;28;19956;-76
2022/12/19 11:50:50;;;;;;;;;;;;;;;;;;5095089;28;19979;-75
2022/12/19 11:53:19;;;;;;;;;;;;;;;;;;5095810;28;19929;-76
2022/12/19 11:55:50;;;;;;;;;;;;;;;;;;5077607;28;19988;-76
2022/12/19 11:58:17;;;;;;;;;;;;;;;;;;5074519;28;20469;-75
2022/12/19 12:00:47;;;;;;;;;;;;;;;;;;5074025;28;20394;-77
2022/12/19 12:03:26;;;;;;;;;;;;;;;;;;5079897;28;19956;-76
2022/12/19 12:05:55;;;;;;;;;;;;;;;;;;5076250;28;19925;-76
2022/12/19 12:08:36;;;;;;;;;;;;;;;;;;5076613;28;19912;-76
2022/12/19 12:11:08;;;;;;;;;;;;;;;;;;5076469;28;19988;-76
2022/12/19 12:13:39;;;;;;;;;;;;;;;;;;5077165;28;19909;-75
2022/12/19 12:16:08;;;;;;;;;;;;;;;;;;5075370;28;19936;-76
2022/12/19 12:18:44;;;;;;;;;;;;;;;;;;5075183;28;19931;-76
2022/12/19 12:21:18;;;;;;;;;;;;;;;;;;5075239;28;19924;-76
2022/12/19 12:23:55;;;;;;;;;;;;;;;;;;5072611;28;19925;-76
2022/12/19 12:26:25;;;;;;;;;;;;;;;;;;5071410;28;19925;-76
2022/12/19 12:28:57;;;;;;;;;;;;;;;;;;5070761;28;19980;-76
2022/12/19 12:31:29;;;;;;;;;;;;;;;;;;5075299;28;19988;-75
2022/12/19 12:33:59;;;;;;;;;;;;;;;;;;5076089;28;19951;-76
2022/12/19 12:36:29;;;;;;;;;;;;;;;;;;5073906;28;19956;-76
2022/12/19 12:39:02;;;;;;;;;;;;;;;;;;5084815;28;19924;-76
2022/12/19 12:44:19;;;;;;;;;;;;;;;;;;5092585;28;20033;-76
2022/12/19 12:46:47;;;;;;;;;;;;;;;;;;5080691;28;19964;-76
2022/12/19 12:49:23;;;;;;;;;;;;;;;;;;5073463;28;20076;-76
2022/12/19 12:51:50;;;;;;;;;;;;;;;;;;5082604;28;19925;-75
2022/12/19 12:54:17;;;;;;;;;;;;;;;;;;5081327;28;19963;-76
2022/12/19 12:56:45;;;;;;;;;;;;;;;;;;5082342;28;19925;-75
2022/12/19 12:59:21;;;;;;;;;;;;;;;;;;5071232;28;19984;-75
2022/12/19 13:01:52;;;;;;;;;;;;;;;;;;5064286;28;19971;-76
2022/12/19 13:04:21;;;;;;;;;;;;;;;;;;5058480;28;19925;-77
2022/12/19 13:07:05;;;;;;;;;;;;;;;;;;5060167;28;19935;-75
2022/12/19 13:09:34;;;;;;;;;;;;;;;;;;5070817;28;20008;-77
2022/12/19 13:14:49;;;;;;;;;;;;;;;;;;5062650;28;20488;-76
2022/12/19 13:17:23;;;;;;;;;;;;;;;;;;5061254;28;19931;-77
2022/12/19 13:19:54;;;;;;;;;;;;;;;;;;5056232;28;19931;-76
2022/12/19 13:22:38;;;;;;;;;;;;;;;;;;5073320;28;19924;-76
2022/12/19 13:25:19;;;;;;;;;;;;;;;;;;5074582;28;19967;-76
2022/12/19 13:27:47;;;;;;;;;;;;;;;;;;5074429;28;20035;-77
2022/12/19 13:30:17;;;;;;;;;;;;;;;;;;5074288;28;19955;-76
2022/12/19 13:33:04;;;;;;;;;;;;;;;;;;5065544;28;19929;-77
2022/12/19 13:35:32;;;;;;;;;;;;;;;;;;5046282;28;20457;-75
2022/12/19 13:38:01;;;;;;;;;;;;;;;;;;5053201;28;19925;-77
2022/12/19 13:40:30;;;;;;;;;;;;;;;;;;5052925;28;19931;-76
2022/12/19 13:45:51;;;;;;;;;;;;;;;;;;5051511;28;19932;-75
2022/12/19 13:48:23;;;;;;;;;;;;;;;;;;5056868;28;20339;-75
2022/12/19 13:50:51;;;;;;;;;;;;;;;;;;5060932;28;19954;-75
2022/12/19 13:53:18;;;;;;;;;;;;;;;;;;5060706;28;20555;-76
2022/12/19 13:55:44;;;;;;;;;;;;;;;;;;5053548;28;20316;-75
2022/12/19 13:58:20;;;;;;;;;;;;;;;;;;5054016;28;20054;-76
2022/12/19 14:00:47;;;;;;;;;;;;;;;;;;5054237;28;19925;-76
2022/12/19 14:03:17;;;;;;;;;;;;;;;;;;5056924;28;19931;-76
2022/12/19 14:05:43;;;;;;;;;;;;;;;;;;5056008;28;20245;-75
2022/12/19 14:08:12;;;;;;;;;;;;;;;;;;5054414;28;19974;-77
2022/12/19 14:10:42;;;;;;;;;;;;;;;;;;5059957;28;19925;-76
2022/12/19 14:15:56;;;;;;;;;;;;;;;;;;5031655;28;19925;-76
2022/12/19 14:18:25;;;;;;;;;;;;;;;;;;5060063;28;20015;-77
2022/12/19 14:21:06;;;;;;;;;;;;;;;;;;5051266;28;20015;-80
2022/12/19 14:23:33;;;;;;;;;;;;;;;;;;5054487;28;20008;-75
2022/12/19 14:25:59;;;;;;;;;;;;;;;;;;5056245;28;19931;-75
2022/12/19 14:28:27;;;;;;;;;;;;;;;;;;5072517;28;20551;-76
2022/12/19 14:30:57;;;;;;;;;;;;;;;;;;5070455;28;20015;-76
2022/12/19 14:33:31;;;;;;;;;;;;;;;;;;5067812;28;19931;-75
2022/12/19 14:35:58;;;;;;;;;;;;;;;;;;5070681;28;20027;-76
2022/12/19 14:38:27;;;;;;;;;;;;;;;;;;5058223;28;19936;-75
2022/12/19 14:40:54;;;;;;;;;;;;;;;;;;5053485;28;19924;-76
2022/12/19 14:43:46;;;;;;;;;;;;;;;;;;5055342;28;19979;-75
2022/12/19 14:46:23;;;;;;;;;;;;;;;;;;5058165;28;20107;-74
2022/12/19 14:48:52;;;;;;;;;;;;;;;;;;5063148;28;19925;-75
2022/12/19 14:51:31;;;;;;;;;;;;;;;;;;5055638;28;20011;-75
2022/12/19 14:54:05;;;;;;;;;;;;;;;;;;5055199;28;20404;-76
2022/12/19 14:56:33;;;;;;;;;;;;;;;;;;5062783;28;20011;-76
2022/12/19 14:58:59;;;;;;;;;;;;;;;;;;5058774;28;19963;-75
2022/12/19 15:01:27;;;;;;;;;;;;;;;;;;5058942;28;19971;-75
2022/12/19 15:03:57;;;;;;;;;;;;;;;;;;5054704;28;19924;-75
2022/12/19 15:06:26;;;;;;;;;;;;;;;;;;5051623;28;19925;-76
2022/12/19 15:08:54;;;;;;;;;;;;;;;;;;5055188;28;20015;-76
2022/12/19 15:14:23;;;;;;;;;;;;;;;;;;5056647;28;20641;-74
2022/12/19 15:17:00;;;;;;;;;;;;;;;;;;5050156;28;19925;-74
2022/12/19 15:19:28;;;;;;;;;;;;;;;;;;5066663;28;20459;-74
2022/12/19 15:21:54;;;;;;;;;;;;;;;;;;5069578;28;20017;-75
2022/12/19 15:24:21;;;;;;;;;;;;;;;;;;5063072;28;19925;-74
2022/12/19 15:26:50;;;;;;;;;;;;;;;;;;5060171;28;20354;-76
2022/12/19 15:29:16;;;;;;;;;;;;;;;;;;5064240;28;19971;-76
2022/12/19 15:31:43;;;;;;;;;;;;;;;;;;5055940;28;19925;-75
2022/12/19 15:34:19;;;;;;;;;;;;;;;;;;5060348;28;20007;-75
2022/12/19 15:36:47;;;;;;;;;;;;;;;;;;5053281;28;20035;-75
2022/12/19 15:39:14;;;;;;;;;;;;;;;;;;5063164;28;20358;-75
2022/12/19 15:41:41;;;;;;;;;;;;;;;;;;5054722;28;19925;-75
2022/12/19 15:44:09;;;;;;;;;;;;;;;;;;5051169;28;19933;-75
2022/12/19 15:46:36;;;;;;;;;;;;;;;;;;5055363;28;20024;-75
2022/12/19 15:49:02;;;;;;;;;;;;;;;;;;5066348;28;20288;-74
2022/12/19 15:51:29;;;;;;;;;;;;;;;;;;5067895;28;19925;-75
2022/12/19 15:53:57;;;;;;;;;;;;;;;;;;5064519;28;19955;-76
2022/12/19 15:56:25;;;;;;;;;;;;;;;;;;5062822;28;19947;-76
2022/12/19 15:58:53;;;;;;;;;;;;;;;;;;5068932;28;19931;-76
2022/12/19 16:01:20;;;;;;;;;;;;;;;;;;5072174;28;20007;-75
2022/12/19 16:03:46;;;;;;;;;;;;;;;;;;5065750;28;19928;-75
2022/12/19 16:06:14;;;;;;;;;;;;;;;;;;5070001;28;19931;-75
2022/12/19 16:08:41;;;;;;;;;;;;;;;;;;5052343;28;19925;-74
2022/12/19 16:11:15;;;;;;;;;;;;;;;;;;5057774;28;19999;-74
2022/12/19 16:13:42;;;;;;;;;;;;;;;;;;5051966;28;19975;-76
2022/12/19 16:16:10;;;;;;;;;;;;;;;;;;5056274;28;20008;-76
2022/12/19 16:18:36;;;;;;;;;;;;;;;;;;5057267;28;19946;-75
2022/12/19 16:21:02;;;;;;;;;;;;;;;;;;5063335;28;19935;-75
2022/12/19 16:23:29;;;;;;;;;;;;;;;;;;5052861;28;20012;-74
2022/12/19 16:25:55;;;;;;;;;;;;;;;;;;5068953;28;19931;-75
2022/12/19 16:28:26;;;;;;;;;;;;;;;;;;5072494;28;19924;-74
2022/12/19 16:30:55;;;;;;;;;;;;;;;;;;5071204;28;20375;-75
2022/12/19 16:33:22;;;;;;;;;;;;;;;;;;5053591;28;19925;-75
2022/12/19 16:35:48;;;;;;;;;;;;;;;;;;5052080;28;20028;-75
2022/12/19 16:38:15;;;;;;;;;;;;;;;;;;5056855;28;20455;-74
2022/12/19 16:40:42;;;;;;;;;;;;;;;;;;5069340;28;19934;-74
2022/12/19 16:43:14;;;;;;;;;;;;;;;;;;5068506;28;19929;-74
2022/12/19 16:45:42;;;;;;;;;;;;;;;;;;5067594;28;19978;-75
2022/12/19 16:48:16;;;;;;;;;;;;;;;;;;5063782;28;20394;-74
2022/12/19 16:50:42;;;;;;;;;;;;;;;;;;5070958;28;19931;-74
2022/12/19 16:53:09;;;;;;;;;;;;;;;;;;5067355;28;19925;-76
2022/12/19 16:55:35;;;;;;;;;;;;;;;;;;5055823;28;20306;-76
2022/12/19 16:58:02;;;;;;;;;;;;;;;;;;5055931;28;19934;-75
2022/12/19 17:00:28;;;;;;;;;;;;;;;;;;5055974;28;19931;-76
2022/12/19 17:03:00;;;;;;;;;;;;;;;;;;5059481;28;19971;-75
2022/12/19 17:05:28;;;;;;;;;;;;;;;;;;5057319;28;19933;-74
2022/12/19 17:07:54;;;;;;;;;;;;;;;;;;5057289;28;19928;-74
2022/12/19 17:10:23;;;;;;;;;;;;;;;;;;5054754;28;19963;-74
2022/12/19 17:12:50;;;;;;;;;;;;;;;;;;5055195;28;19925;-75
2022/12/19 17:15:22;;;;;;;;;;;;;;;;;;5059189;28;19963;-77
2022/12/19 17:17:49;;;;;;;;;;;;;;;;;;5058063;28;19954;-76